Time;durP1;ratioP1;P1;durP2;ratioP2;P2;SDS_P1;SDS_P2;PMS_P1;PMS_P2;Temp;Humidity;BMP_temperature;BMP_pressure;BME280_temperature;BME280_humidity;BME280_pressure;Samples;Min_cycle;Max_cycle;Signal;HPM_P1;HPM_P2
2022/10/26 00:02:15;;;;;;;6.37;5.70;;;12.20;99.90;;;;;;6223882;23;20526;-67
2022/10/26 00:04:41;;;;;;;6.00;5.40;;;12.20;99.90;;;;;;6224009;23;20151;-67
2022/10/26 00:07:06;;;;;;;6.00;5.60;;;12.20;99.90;;;;;;6212338;23;20505;-67
2022/10/26 00:09:32;;;;;;;5.53;5.23;;;12.20;99.90;;;;;;6212201;23;20151;-67
2022/10/26 00:11:57;;;;;;;5.60;5.20;;;12.20;99.90;;;;;;6223552;23;20550;-67
2022/10/26 00:14:23;;;;;;;9.87;6.03;;;12.20;99.90;;;;;;6212106;23;20606;-67
2022/10/26 00:16:49;;;;;;;5.53;5.23;;;12.30;99.90;;;;;;6211723;23;20265;-68
2022/10/26 00:19:14;;;;;;;9.03;5.77;;;12.30;99.90;;;;;;6223937;23;20143;-67
2022/10/26 00:21:40;;;;;;;5.97;5.47;;;12.30;99.90;;;;;;6213400;23;20158;-68
2022/10/26 00:24:05;;;;;;;5.37;5.07;;;12.30;99.90;;;;;;6225602;23;20174;-68
2022/10/26 00:26:31;;;;;;;5.73;5.27;;;12.30;99.90;;;;;;6225584;23;20641;-67
2022/10/26 00:28:57;;;;;;;5.23;4.93;;;12.30;99.90;;;;;;6224692;23;20594;-67
2022/10/26 00:31:23;;;;;;;5.40;5.00;;;12.40;99.90;;;;;;6225497;23;20143;-68
2022/10/26 00:33:54;;;;;;;5.63;4.77;;;12.40;99.90;;;;;;6225729;23;20155;-67
2022/10/26 00:36:20;;;;;;;5.00;4.50;;;12.40;99.90;;;;;;6225727;23;20277;-67
2022/10/26 00:38:54;;;;;;;5.87;5.47;;;12.40;99.90;;;;;;6225863;23;20151;-68
2022/10/26 00:41:27;;;;;;;7.70;5.30;;;12.50;99.90;;;;;;6213701;23;20161;-67
2022/10/26 00:43:53;;;;;;;5.07;4.77;;;12.50;99.90;;;;;;6225680;23;20169;-67
2022/10/26 00:46:25;;;;;;;5.43;5.13;;;12.50;99.90;;;;;;6225762;23;20167;-66
2022/10/26 00:49:04;;;;;;;5.07;4.70;;;12.50;99.90;;;;;;6213813;23;20147;-67
2022/10/26 00:51:35;;;;;;;5.00;4.70;;;12.50;99.90;;;;;;6225350;23;20202;-68
2022/10/26 00:54:05;;;;;;;5.33;5.10;;;12.60;99.90;;;;;;6225497;23;20567;-67
2022/10/26 00:56:33;;;;;;;4.87;4.67;;;12.60;99.90;;;;;;6225287;23;20232;-68
2022/10/26 00:59:04;;;;;;;5.13;4.83;;;12.60;99.90;;;;;;6213810;23;20155;-68
2022/10/26 01:01:32;;;;;;;5.47;5.00;;;12.60;99.90;;;;;;6225241;23;20150;-68
2022/10/26 01:03:59;;;;;;;4.87;4.57;;;12.60;99.90;;;;;;6213678;23;20205;-67
2022/10/26 01:06:26;;;;;;;5.00;4.70;;;12.60;99.90;;;;;;6213522;23;20631;-68
2022/10/26 01:08:53;;;;;;;4.60;4.30;;;12.70;99.90;;;;;;6225310;23;20202;-67
2022/10/26 01:11:18;;;;;;;5.83;5.40;;;12.70;99.90;;;;;;6213829;23;20494;-67
2022/10/26 01:13:45;;;;;;;4.70;4.40;;;12.70;99.90;;;;;;6225373;23;20200;-68
2022/10/26 01:16:33;;;;;;;5.03;4.63;;;12.70;99.90;;;;;;6213448;23;20182;-69
2022/10/26 01:19:36;;;;;;;5.03;4.63;;;12.70;99.90;;;;;;6225271;23;20127;-68
2022/10/26 01:22:17;;;;;;;6.70;5.37;;;12.80;99.90;;;;;;6225006;23;20518;-67
2022/10/26 01:24:58;;;;;;;5.03;4.73;;;12.80;99.90;;;;;;6225626;23;20192;-67
2022/10/26 01:27:38;;;;;;;5.00;4.70;;;12.80;99.90;;;;;;6222878;23;20183;-67
2022/10/26 01:30:24;;;;;;;5.33;5.03;;;12.80;99.90;;;;;;6224758;23;20149;-68
2022/10/26 01:33:08;;;;;;;5.30;4.90;;;12.90;99.90;;;;;;6224819;23;20232;-68
2022/10/26 01:35:48;;;;;;;4.70;4.43;;;12.90;99.90;;;;;;6225267;23;20182;-67
2022/10/26 01:38:22;;;;;;;4.40;4.20;;;12.90;99.90;;;;;;6224934;23;20173;-67
2022/10/26 01:41:01;;;;;;;5.10;4.60;;;12.90;99.90;;;;;;6225115;23;20165;-67
2022/10/26 01:43:32;;;;;;;4.63;4.23;;;12.90;99.90;;;;;;6213512;23;20146;-67
2022/10/26 01:45:58;;;;;;;4.40;4.10;;;12.90;99.90;;;;;;6225503;23;20309;-68
2022/10/26 01:48:26;;;;;;;4.87;4.47;;;13.00;99.90;;;;;;6224844;23;20662;-68
2022/10/26 01:50:53;;;;;;;5.13;4.70;;;13.00;99.90;;;;;;6213090;23;20154;-67
2022/10/26 01:53:19;;;;;;;4.30;4.10;;;13.00;99.90;;;;;;6213418;23;20183;-67
2022/10/26 01:55:53;;;;;;;4.73;4.43;;;13.00;99.90;;;;;;6213457;23;20193;-67
2022/10/26 01:58:46;;;;;;;4.50;4.20;;;13.00;99.90;;;;;;6225072;23;20154;-68
2022/10/26 02:01:41;;;;;;;4.07;3.87;;;13.00;99.90;;;;;;6224607;23;20567;-67
2022/10/26 02:04:23;;;;;;;4.17;3.97;;;13.00;99.90;;;;;;6224584;23;20127;-67
2022/10/26 02:07:06;;;;;;;4.37;4.03;;;12.90;99.90;;;;;;6224458;23;20278;-67
2022/10/26 02:09:45;;;;;;;5.30;4.50;;;12.90;99.90;;;;;;6224562;23;20131;-67
2022/10/26 02:12:37;;;;;;;5.07;4.60;;;12.80;99.90;;;;;;6213268;23;20559;-67
2022/10/26 02:15:25;;;;;;;5.10;4.70;;;12.80;99.90;;;;;;6224644;23;20226;-67
2022/10/26 02:18:03;;;;;;;5.40;3.97;;;12.80;99.90;;;;;;6213045;23;20143;-67
2022/10/26 02:20:37;;;;;;;5.77;4.67;;;12.80;99.90;;;;;;6224341;23;20135;-67
2022/10/26 02:23:06;;;;;;;6.77;5.10;;;12.80;99.90;;;;;;6224522;23;20186;-67
2022/10/26 02:25:35;;;;;;;4.90;4.50;;;12.80;99.90;;;;;;6212665;23;20201;-67
2022/10/26 02:28:12;;;;;;;4.70;4.30;;;12.80;99.90;;;;;;6224475;23;20139;-67
2022/10/26 02:30:39;;;;;;;4.83;4.60;;;12.90;99.90;;;;;;6212994;23;20567;-67
2022/10/26 02:33:08;;;;;;;10.20;4.73;;;12.90;99.90;;;;;;6224744;23;20661;-67
2022/10/26 02:35:36;;;;;;;5.47;5.07;;;13.00;99.90;;;;;;6212711;23;20522;-67
2022/10/26 02:38:06;;;;;;;5.10;4.63;;;13.00;99.90;;;;;;6224771;23;20150;-67
2022/10/26 02:40:33;;;;;;;4.90;4.60;;;13.00;99.90;;;;;;6224611;23;20175;-67
2022/10/26 02:43:03;;;;;;;4.67;4.27;;;13.00;99.90;;;;;;6224275;23;20221;-67
2022/10/26 02:45:35;;;;;;;4.50;4.20;;;13.10;99.90;;;;;;6212516;23;20155;-66
2022/10/26 02:48:01;;;;;;;4.83;4.53;;;13.10;99.90;;;;;;6224428;23;20135;-66
2022/10/26 02:50:37;;;;;;;4.47;4.20;;;13.10;99.90;;;;;;6212619;23;20617;-66
2022/10/26 02:53:15;;;;;;;5.13;4.63;;;13.10;99.90;;;;;;6224487;23;20607;-66
2022/10/26 02:55:47;;;;;;;4.90;4.50;;;13.20;99.90;;;;;;6224157;23;20186;-67
2022/10/26 02:58:18;;;;;;;4.30;4.00;;;13.20;99.90;;;;;;6212794;23;20143;-67
2022/10/26 03:00:45;;;;;;;4.97;4.33;;;13.30;99.90;;;;;;6212262;23;20481;-67
2022/10/26 03:03:11;;;;;;;4.50;4.30;;;13.30;99.90;;;;;;6224432;23;20591;-67
2022/10/26 03:05:41;;;;;;;4.67;4.47;;;13.30;99.90;;;;;;6212420;23;20175;-67
2022/10/26 03:08:08;;;;;;;4.13;3.83;;;13.30;99.90;;;;;;6212572;23;20161;-67
2022/10/26 03:10:42;;;;;;;4.23;4.00;;;13.30;99.90;;;;;;6224266;23;20150;-67
2022/10/26 03:13:08;;;;;;;5.70;4.70;;;13.40;99.90;;;;;;6212990;23;20452;-67
2022/10/26 03:15:34;;;;;;;4.50;4.30;;;13.30;99.90;;;;;;6212764;23;20217;-68
2022/10/26 03:18:00;;;;;;;5.03;4.03;;;13.30;99.90;;;;;;6212417;23;20150;-66
2022/10/26 03:20:25;;;;;;;4.80;4.40;;;13.30;99.90;;;;;;6223705;23;20777;-67
2022/10/26 03:22:51;;;;;;;4.37;4.17;;;13.40;99.90;;;;;;6223852;23;20139;-67
2022/10/26 03:25:17;;;;;;;4.80;4.50;;;13.40;99.90;;;;;;6224248;23;20234;-67
2022/10/26 03:27:43;;;;;;;5.20;4.63;;;13.40;99.90;;;;;;6215844;22;20221;-67
2022/10/26 03:30:09;;;;;;;4.80;4.60;;;13.40;99.90;;;;;;6224979;23;20605;-69
2022/10/26 03:32:35;;;;;;;6.83;4.57;;;13.40;99.90;;;;;;6225101;23;20147;-67
2022/10/26 03:35:00;;;;;;;5.80;4.57;;;13.40;99.90;;;;;;6224809;23;20624;-68
2022/10/26 03:37:26;;;;;;;4.53;4.30;;;13.50;99.90;;;;;;6224780;23;20388;-70
2022/10/26 03:39:52;;;;;;;5.23;4.83;;;13.40;99.90;;;;;;6224775;23;20174;-69
2022/10/26 03:42:17;;;;;;;4.43;4.20;;;13.50;99.90;;;;;;6225056;23;20149;-69
2022/10/26 03:44:43;;;;;;;6.70;4.10;;;13.50;99.90;;;;;;6225159;23;20157;-68
2022/10/26 03:47:08;;;;;;;7.50;5.00;;;13.50;99.90;;;;;;6213218;23;20171;-67
2022/10/26 03:49:34;;;;;;;4.77;4.47;;;13.60;99.90;;;;;;6224624;23;20268;-70
2022/10/26 03:52:00;;;;;;;4.77;4.57;;;13.60;99.90;;;;;;6224835;23;20143;-70
2022/10/26 03:54:26;;;;;;;4.90;4.70;;;13.60;99.90;;;;;;6225139;23;20147;-68
2022/10/26 03:56:51;;;;;;;4.90;4.50;;;13.60;99.90;;;;;;6224184;23;20606;-68
2022/10/26 03:59:17;;;;;;;6.13;5.40;;;13.60;99.90;;;;;;6224637;23;20153;-71
2022/10/26 04:01:43;;;;;;;5.80;5.10;;;13.70;99.90;;;;;;6212947;23;20159;-69
2022/10/26 04:04:08;;;;;;;4.53;4.23;;;13.70;99.90;;;;;;6225051;23;20394;-67
2022/10/26 04:06:34;;;;;;;6.97;4.53;;;13.70;99.90;;;;;;6224476;23;20197;-69
2022/10/26 04:09:01;;;;;;;5.00;4.60;;;13.70;99.90;;;;;;6224408;23;20187;-70
2022/10/26 04:11:27;;;;;;;5.40;4.53;;;13.70;99.90;;;;;;6224054;23;20147;-70
2022/10/26 04:13:54;;;;;;;4.80;4.50;;;13.70;99.90;;;;;;6213219;23;20155;-70
2022/10/26 04:16:20;;;;;;;5.03;4.60;;;13.70;99.90;;;;;;6224611;23;20183;-67
2022/10/26 04:18:45;;;;;;;4.57;4.27;;;13.70;99.90;;;;;;6213743;23;20623;-70
2022/10/26 04:21:11;;;;;;;5.33;4.83;;;13.80;99.90;;;;;;6224200;23;20146;-68
2022/10/26 04:23:36;;;;;;;5.43;4.93;;;13.80;99.90;;;;;;6225037;23;20147;-68
2022/10/26 04:26:04;;;;;;;5.10;4.70;;;13.80;99.90;;;;;;6224357;22;20185;-68
2022/10/26 04:28:30;;;;;;;4.83;4.40;;;13.80;99.90;;;;;;6224082;23;20158;-70
2022/10/26 04:30:55;;;;;;;5.20;4.80;;;13.80;99.90;;;;;;6223875;23;20159;-67
2022/10/26 04:33:21;;;;;;;5.17;4.77;;;13.80;99.90;;;;;;6224979;23;20153;-70
2022/10/26 04:35:47;;;;;;;4.73;4.33;;;13.80;99.90;;;;;;6224389;23;20171;-68
2022/10/26 04:38:12;;;;;;;4.97;4.67;;;13.80;99.90;;;;;;6224821;23;20148;-68
2022/10/26 04:40:38;;;;;;;5.47;4.57;;;13.70;99.90;;;;;;6223979;23;20158;-68
2022/10/26 04:43:04;;;;;;;4.30;4.10;;;13.70;99.90;;;;;;6212805;23;20147;-67
2022/10/26 04:45:30;;;;;;;4.70;4.40;;;13.70;99.90;;;;;;6224327;23;20143;-68
2022/10/26 04:48:12;;;;;;;5.20;4.70;;;13.70;99.90;;;;;;6224371;23;20174;-69
2022/10/26 04:50:38;;;;;;;6.80;4.70;;;13.70;99.90;;;;;;6223608;23;20582;-70
2022/10/26 04:53:06;;;;;;;4.57;4.30;;;13.70;99.90;;;;;;6224524;23;20146;-70
2022/10/26 04:55:32;;;;;;;4.90;4.50;;;13.70;99.90;;;;;;6224249;23;20166;-68
2022/10/26 04:57:57;;;;;;;4.90;4.60;;;13.70;99.90;;;;;;6224375;23;20188;-67
2022/10/26 05:00:23;;;;;;;4.40;4.20;;;13.80;99.90;;;;;;6223836;23;20158;-68
2022/10/26 05:02:49;;;;;;;4.43;4.23;;;13.80;99.90;;;;;;6224304;23;20139;-68
2022/10/26 05:05:14;;;;;;;5.00;4.70;;;13.80;99.90;;;;;;6223486;23;20147;-64
2022/10/26 05:07:40;;;;;;;5.30;5.00;;;13.80;99.90;;;;;;6224338;23;20166;-64
2022/10/26 05:10:06;;;;;;;4.50;4.30;;;13.80;99.90;;;;;;6213708;23;20159;-66
2022/10/26 05:12:32;;;;;;;4.90;4.60;;;13.90;99.90;;;;;;6225372;23;20647;-64
2022/10/26 05:14:58;;;;;;;9.73;5.33;;;13.90;99.90;;;;;;6225029;23;20225;-64
2022/10/26 05:17:25;;;;;;;5.30;4.90;;;13.90;99.90;;;;;;6225356;23;20495;-64
2022/10/26 05:19:59;;;;;;;5.33;4.83;;;13.90;99.90;;;;;;6224840;23;20143;-64
2022/10/26 05:22:24;;;;;;;5.10;4.60;;;13.90;99.90;;;;;;6225565;23;20181;-64
2022/10/26 05:24:50;;;;;;;5.30;5.00;;;13.90;99.90;;;;;;6225060;23;20143;-64
2022/10/26 05:27:17;;;;;;;6.80;4.40;;;14.00;99.90;;;;;;6224039;23;20182;-64
2022/10/26 05:29:42;;;;;;;6.43;4.63;;;14.00;99.90;;;;;;6224583;23;20216;-64
2022/10/26 05:32:08;;;;;;;6.43;5.93;;;14.00;99.90;;;;;;6225270;23;20143;-64
2022/10/26 05:34:33;;;;;;;5.67;5.30;;;14.00;99.90;;;;;;6224922;23;20482;-64
2022/10/26 05:36:59;;;;;;;4.80;4.50;;;14.00;99.90;;;;;;6224940;23;20175;-64
2022/10/26 05:39:25;;;;;;;5.37;4.97;;;14.10;99.90;;;;;;6224685;23;20231;-65
2022/10/26 05:41:50;;;;;;;5.27;4.87;;;14.10;99.90;;;;;;6224680;23;20480;-65
2022/10/26 05:44:16;;;;;;;4.80;4.50;;;14.10;99.90;;;;;;6224837;23;20188;-65
2022/10/26 05:46:41;;;;;;;4.83;4.50;;;14.10;99.90;;;;;;6223838;23;20224;-64
2022/10/26 05:49:07;;;;;;;4.70;4.40;;;14.20;99.90;;;;;;6224663;23;20488;-64
2022/10/26 05:51:35;;;;;;;4.60;4.20;;;14.20;99.90;;;;;;6224851;23;20488;-64
2022/10/26 05:54:01;;;;;;;4.60;4.40;;;14.20;99.90;;;;;;6225216;23;20479;-64
2022/10/26 05:56:36;;;;;;;4.37;4.10;;;14.20;99.90;;;;;;6213001;23;20182;-64
2022/10/26 05:59:02;;;;;;;4.80;4.40;;;14.20;99.90;;;;;;6211096;23;20153;-64
2022/10/26 06:01:48;;;;;;;5.40;5.00;;;14.30;99.90;;;;;;6224216;23;20154;-64
2022/10/26 06:04:36;;;;;;;4.70;4.40;;;14.30;99.90;;;;;;6213973;23;20158;-65
2022/10/26 06:07:02;;;;;;;5.93;5.53;;;14.30;99.90;;;;;;6223552;23;20201;-65
2022/10/26 06:09:28;;;;;;;5.80;5.40;;;14.30;99.90;;;;;;6224150;23;20182;-65
2022/10/26 06:11:54;;;;;;;5.47;5.07;;;14.30;99.90;;;;;;6224377;23;20201;-65
2022/10/26 06:14:20;;;;;;;5.13;4.60;;;14.40;99.90;;;;;;6224426;23;20155;-65
2022/10/26 06:17:03;;;;;;;12.50;5.27;;;14.40;99.90;;;;;;6224144;23;20190;-64
2022/10/26 06:19:47;;;;;;;5.27;4.57;;;14.50;99.90;;;;;;6223807;23;20245;-65
2022/10/26 06:22:26;;;;;;;5.03;4.30;;;14.50;99.90;;;;;;6224494;23;20131;-65
2022/10/26 06:25:04;;;;;;;5.10;4.77;;;14.50;99.90;;;;;;6224433;23;20139;-66
2022/10/26 06:27:38;;;;;;;5.93;5.43;;;14.60;99.90;;;;;;6223871;23;20268;-65
2022/10/26 06:30:10;;;;;;;7.60;4.63;;;14.60;99.90;;;;;;6224050;23;20158;-65
2022/10/26 06:32:37;;;;;;;6.20;5.70;;;14.60;99.90;;;;;;6211615;23;20155;-65
2022/10/26 06:35:05;;;;;;;6.00;5.33;;;14.50;99.90;;;;;;6224154;23;20289;-65
2022/10/26 06:37:31;;;;;;;6.47;5.97;;;14.50;99.90;;;;;;6212809;23;20249;-65
2022/10/26 06:39:57;;;;;;;5.23;4.77;;;14.50;99.90;;;;;;6223845;23;20143;-65
2022/10/26 06:42:23;;;;;;;5.20;4.90;;;14.50;99.90;;;;;;6224040;23;20169;-65
2022/10/26 06:44:49;;;;;;;5.70;5.37;;;14.50;99.90;;;;;;6224434;23;20154;-65
2022/10/26 06:47:30;;;;;;;5.63;5.13;;;14.40;99.90;;;;;;6223896;23;20250;-65
2022/10/26 06:50:22;;;;;;;5.80;5.40;;;14.40;99.90;;;;;;6212214;23;20590;-65
2022/10/26 06:52:59;;;;;;;6.83;5.90;;;14.30;99.90;;;;;;6223729;23;20151;-64
2022/10/26 06:55:26;;;;;;;7.90;6.63;;;14.30;99.90;;;;;;6212486;23;20177;-64
2022/10/26 06:57:52;;;;;;;8.27;7.57;;;14.20;99.90;;;;;;6223997;23;20162;-65
2022/10/26 07:00:24;;;;;;;9.20;8.00;;;14.20;99.90;;;;;;6223907;23;20205;-65
2022/10/26 07:02:50;;;;;;;7.53;6.93;;;14.20;99.90;;;;;;6224009;23;20642;-65
2022/10/26 07:05:16;;;;;;;6.60;6.00;;;14.20;99.90;;;;;;6224133;23;20189;-65
2022/10/26 07:07:46;;;;;;;6.43;5.93;;;14.30;99.90;;;;;;6212171;23;20622;-65
2022/10/26 07:10:13;;;;;;;5.83;5.43;;;14.30;99.90;;;;;;6223888;23;20158;-65
2022/10/26 07:12:39;;;;;;;6.00;5.40;;;14.40;99.90;;;;;;6224136;23;20155;-65
2022/10/26 07:15:07;;;;;;;4.73;4.43;;;14.50;99.90;;;;;;6224023;23;20698;-65
2022/10/26 07:17:45;;;;;;;4.63;4.33;;;14.50;99.90;;;;;;6223865;23;20158;-65
2022/10/26 07:20:20;;;;;;;7.03;4.90;;;14.70;99.90;;;;;;6223946;23;20142;-65
2022/10/26 07:22:54;;;;;;;5.63;5.23;;;14.80;99.90;;;;;;6223789;23;20139;-65
2022/10/26 07:25:20;;;;;;;6.80;5.20;;;14.90;99.90;;;;;;6224141;23;20161;-65
2022/10/26 07:27:46;;;;;;;5.13;4.80;;;14.90;99.90;;;;;;6223741;23;20182;-65
2022/10/26 07:30:12;;;;;;;6.13;5.40;;;14.90;99.90;;;;;;6223732;23;20528;-65
2022/10/26 07:32:38;;;;;;;7.57;4.90;;;14.90;99.90;;;;;;6222053;23;20150;-65
2022/10/26 07:35:04;;;;;;;10.53;5.50;;;14.90;99.90;;;;;;6224052;23;20613;-65
2022/10/26 07:37:29;;;;;;;6.70;4.97;;;14.90;99.90;;;;;;6223706;23;20166;-66
2022/10/26 07:39:55;;;;;;;5.33;4.30;;;14.80;99.90;;;;;;6223876;23;20154;-65
2022/10/26 07:42:21;;;;;;;4.83;4.53;;;14.80;99.90;;;;;;6222452;23;20143;-66
2022/10/26 07:44:46;;;;;;;4.97;4.70;;;14.70;99.90;;;;;;6223731;23;20209;-65
2022/10/26 07:47:12;;;;;;;4.53;4.20;;;14.70;99.90;;;;;;6223596;23;20175;-65
2022/10/26 07:49:38;;;;;;;4.50;4.07;;;14.90;99.90;;;;;;6223192;23;20159;-65
2022/10/26 07:52:04;;;;;;;5.87;5.30;;;15.10;99.90;;;;;;6223662;23;20147;-65
2022/10/26 07:54:31;;;;;;;4.83;4.43;;;15.30;99.90;;;;;;6223426;23;20175;-65
2022/10/26 07:56:56;;;;;;;6.40;5.20;;;15.50;99.90;;;;;;6223547;23;20186;-65
2022/10/26 07:59:22;;;;;;;6.70;5.27;;;15.80;99.90;;;;;;6213391;23;20151;-65
2022/10/26 08:01:48;;;;;;;4.77;4.47;;;16.20;99.90;;;;;;6223118;23;20185;-66
2022/10/26 08:04:14;;;;;;;6.13;5.10;;;16.50;99.90;;;;;;6223704;23;20147;-66
2022/10/26 08:06:39;;;;;;;4.63;4.30;;;16.90;99.90;;;;;;6223105;23;20257;-66
2022/10/26 08:09:05;;;;;;;4.47;4.17;;;17.20;99.90;;;;;;6220222;23;20182;-66
2022/10/26 08:11:31;;;;;;;4.17;3.90;;;17.30;99.90;;;;;;6223064;23;20598;-66
2022/10/26 08:13:57;;;;;;;5.63;5.30;;;17.50;99.90;;;;;;6213831;23;20579;-66
2022/10/26 08:16:23;;;;;;;5.37;4.97;;;17.70;99.90;;;;;;6211458;23;20193;-66
2022/10/26 08:18:50;;;;;;;6.30;4.37;;;17.80;99.90;;;;;;6222721;23;20582;-66
2022/10/26 08:21:16;;;;;;;4.53;3.70;;;17.90;99.90;;;;;;6223112;23;20139;-65
2022/10/26 08:23:42;;;;;;;4.27;4.07;;;18.10;99.90;;;;;;6211789;23;20362;-66
2022/10/26 08:26:12;;;;;;;5.60;5.20;;;18.30;99.90;;;;;;6222088;23;20186;-65
2022/10/26 08:28:38;;;;;;;7.23;4.13;;;18.30;99.90;;;;;;6211073;23;20509;-65
2022/10/26 08:31:04;;;;;;;6.03;4.37;;;18.40;99.90;;;;;;6221859;23;20249;-66
2022/10/26 08:33:30;;;;;;;4.07;3.77;;;18.50;99.90;;;;;;6223371;23;20158;-66
2022/10/26 08:35:58;;;;;;;9.90;4.30;;;18.60;99.90;;;;;;6223241;23;20182;-66
2022/10/26 08:38:24;;;;;;;4.50;4.20;;;18.40;99.90;;;;;;6211595;23;20205;-66
2022/10/26 08:40:50;;;;;;;4.20;4.00;;;18.10;99.90;;;;;;6222824;23;20583;-65
2022/10/26 08:43:19;;;;;;;5.20;4.80;;;17.80;99.90;;;;;;6224709;23;20147;-66
2022/10/26 08:45:58;;;;;;;4.90;4.60;;;17.50;99.90;;;;;;6224966;23;20641;-66
2022/10/26 08:48:33;;;;;;;6.97;4.23;;;17.20;99.90;;;;;;6225296;23;20135;-66
2022/10/26 08:51:13;;;;;;;4.63;3.97;;;17.10;99.90;;;;;;6224766;23;20156;-66
2022/10/26 08:53:46;;;;;;;7.83;5.97;;;16.90;99.90;;;;;;6224642;23;20153;-65
2022/10/26 08:56:24;;;;;;;4.60;4.20;;;16.70;99.90;;;;;;6224926;23;20178;-65
2022/10/26 08:59:10;;;;;;;4.53;4.13;;;16.50;99.90;;;;;;6225224;23;20573;-66
2022/10/26 09:01:36;;;;;;;4.27;4.07;;;16.40;99.90;;;;;;6212758;23;20238;-66
2022/10/26 09:04:07;;;;;;;5.27;4.80;;;16.30;99.90;;;;;;6225055;23;20170;-65
2022/10/26 09:07:01;;;;;;;5.00;4.53;;;16.40;99.90;;;;;;6223738;23;20514;-66
2022/10/26 09:09:36;;;;;;;4.37;4.17;;;16.50;99.90;;;;;;6224913;23;20139;-66
2022/10/26 09:12:24;;;;;;;5.77;5.40;;;16.70;99.90;;;;;;6224973;23;20155;-66
2022/10/26 09:15:19;;;;;;;4.83;4.43;;;17.00;99.90;;;;;;6225006;23;20214;-66
2022/10/26 09:18:06;;;;;;;4.60;3.90;;;17.80;99.90;;;;;;6214208;23;20487;-66
2022/10/26 09:21:04;;;;;;;4.00;3.70;;;18.70;99.90;;;;;;6212385;23;20142;-66
2022/10/26 09:24:00;;;;;;;3.43;3.23;;;19.60;99.90;;;;;;6224397;23;20131;-66
2022/10/26 09:26:58;;;;;;;3.88;3.53;;;20.40;99.90;;;;;;6211163;23;20206;-69
2022/10/26 09:29:29;;;;;;;3.63;3.42;;;21.20;99.90;;;;;;6224225;23;20159;-69
2022/10/26 09:31:58;;;;;;;3.47;3.17;;;21.50;99.90;;;;;;6212997;23;20450;-69
2022/10/26 09:34:31;;;;;;;3.67;3.00;;;21.80;99.90;;;;;;6224888;23;20151;-70
2022/10/26 09:36:57;;;;;;;3.40;3.10;;;22.00;99.90;;;;;;6212484;23;20233;-69
2022/10/26 09:39:34;;;;;;;3.47;3.08;;;22.00;99.90;;;;;;6224668;23;20479;-70
2022/10/26 09:42:17;;;;;;;7.03;3.30;;;22.10;99.90;;;;;;6213120;23;20266;-69
2022/10/26 09:45:15;;;;;;;3.63;3.33;;;22.10;99.90;;;;;;6212419;23;20147;-69
2022/10/26 09:47:48;;;;;;;3.20;3.00;;;22.30;99.90;;;;;;6213429;23;20174;-69
2022/10/26 09:50:29;;;;;;;3.65;3.35;;;22.30;99.90;;;;;;6224283;23;20127;-69
2022/10/26 09:52:55;;;;;;;3.90;3.55;;;22.50;99.90;;;;;;6224470;23;20162;-69
2022/10/26 09:55:21;;;;;;;4.85;3.30;;;22.50;99.90;;;;;;6212018;23;20170;-69
2022/10/26 09:57:51;;;;;;;3.00;2.80;;;22.50;99.90;;;;;;6213506;23;20171;-69
2022/10/26 10:00:19;;;;;;;4.35;2.85;;;22.50;99.90;;;;;;6212642;23;20209;-69
2022/10/26 10:02:50;;;;;;;3.80;3.42;;;22.60;99.90;;;;;;6213089;23;20151;-69
2022/10/26 10:05:26;;;;;;;3.35;3.10;;;22.70;99.90;;;;;;6213395;23;20175;-69
2022/10/26 10:08:17;;;;;;;3.25;3.03;;;22.70;99.90;;;;;;6224799;23;20163;-69
2022/10/26 10:11:15;;;;;;;3.00;2.80;;;22.60;99.90;;;;;;6224621;23;20135;-69
2022/10/26 10:13:43;;;;;;;3.10;2.90;;;22.60;99.90;;;;;;6213539;23;20154;-69
2022/10/26 10:16:20;;;;;;;3.88;3.38;;;22.60;99.90;;;;;;6213208;23;20179;-69
2022/10/26 10:18:58;;;;;;;3.28;2.95;;;22.80;99.90;;;;;;6213052;23;20150;-69
2022/10/26 10:21:44;;;;;;;4.20;3.33;;;23.00;99.90;;;;;;6224492;23;20127;-69
2022/10/26 10:24:29;;;;;;;5.25;3.25;;;23.20;99.90;;;;;;6211819;23;20147;-69
2022/10/26 10:27:03;;;;;;;3.13;2.83;;;23.60;99.90;;;;;;6224432;23;20248;-69
2022/10/26 10:29:39;;;;;;;6.00;3.35;;;23.90;99.90;;;;;;6224202;23;20150;-69
2022/10/26 10:32:05;;;;;;;3.67;3.20;;;24.20;99.90;;;;;;6224703;23;20142;-69
2022/10/26 10:34:32;;;;;;;3.45;3.25;;;24.30;99.90;;;;;;6224590;23;20211;-69
2022/10/26 10:37:00;;;;;;;3.65;3.45;;;24.40;99.90;;;;;;6210774;23;20705;-68
2022/10/26 10:39:36;;;;;;;3.25;3.00;;;24.30;99.90;;;;;;6220783;23;20171;-69
2022/10/26 10:42:05;;;;;;;8.15;3.70;;;24.10;99.90;;;;;;6211677;23;20200;-69
2022/10/26 10:44:32;;;;;;;5.03;4.55;;;24.20;99.90;;;;;;6212177;23;20155;-69
2022/10/26 10:47:06;;;;;;;3.75;3.03;;;24.10;99.90;;;;;;6212658;23;20518;-69
2022/10/26 10:49:32;;;;;;;3.10;2.92;;;24.30;99.90;;;;;;6223560;23;20146;-69
2022/10/26 10:51:59;;;;;;;5.20;3.67;;;24.40;99.90;;;;;;6224176;23;20162;-69
2022/10/26 10:54:27;;;;;;;3.28;3.08;;;24.50;99.90;;;;;;6223138;23;20146;-69
2022/10/26 10:57:15;;;;;;;3.33;3.13;;;24.40;99.90;;;;;;6212011;23;20638;-69
2022/10/26 10:59:53;;;;;;;3.78;3.40;;;24.70;99.90;;;;;;6176719;23;20712;-69
2022/10/26 11:02:37;;;;;;;3.72;3.10;;;25.00;99.90;;;;;;6224242;23;20131;-69
2022/10/26 11:05:21;;;;;;;4.72;4.30;;;25.40;99.90;;;;;;6224127;23;20138;-69
2022/10/26 11:08:06;;;;;;;9.32;6.35;;;25.70;99.90;;;;;;6212613;23;20660;-69
2022/10/26 11:10:42;;;;;;;9.00;5.40;;;25.40;99.90;;;;;;6223635;23;20123;-69
2022/10/26 11:13:25;;;;;;;4.30;3.92;;;25.40;99.90;;;;;;6224144;23;20210;-69
2022/10/26 11:15:59;;;;;;;6.10;4.95;;;25.50;99.90;;;;;;6224131;23;20173;-68
2022/10/26 11:18:27;;;;;;;4.95;4.18;;;25.60;99.90;;;;;;6223940;23;20227;-69
2022/10/26 11:21:03;;;;;;;4.55;4.15;;;25.90;99.90;;;;;;6223764;23;20147;-69
2022/10/26 11:23:44;;;;;;;5.72;5.22;;;25.80;99.90;;;;;;6210074;23;20139;-68
2022/10/26 11:26:37;;;;;;;3.95;3.63;;;25.40;99.90;;;;;;6223633;22;20169;-69
2022/10/26 11:29:16;;;;;;;3.42;3.15;;;25.20;99.90;;;;;;6224043;23;20139;-69
2022/10/26 11:31:50;;;;;;;3.92;3.47;;;25.20;99.90;;;;;;6223591;23;20141;-69
2022/10/26 11:34:32;;;;;;;3.42;3.13;;;25.20;99.90;;;;;;6224392;23;20139;-68
2022/10/26 11:37:09;;;;;;;3.53;3.20;;;25.10;99.90;;;;;;6211938;23;20236;-68
2022/10/26 11:39:38;;;;;;;3.00;2.70;;;25.10;99.90;;;;;;6212135;23;20146;-69
2022/10/26 11:42:39;;;;;;;2.60;2.50;;;25.10;99.90;;;;;;6223097;23;20150;-69
2022/10/26 11:45:24;;;;;;;4.80;3.47;;;24.90;99.90;;;;;;6212016;23;20613;-69
2022/10/26 11:47:55;;;;;;;4.50;3.53;;;25.10;99.90;;;;;;6223511;23;20250;-69
2022/10/26 11:50:31;;;;;;;3.15;2.95;;;25.20;99.90;;;;;;6223702;23;20135;-69
2022/10/26 11:53:08;;;;;;;5.03;3.70;;;25.00;99.90;;;;;;6224049;23;20146;-69
2022/10/26 11:55:34;;;;;;;3.53;2.85;;;24.90;99.90;;;;;;6223781;23;20163;-69
2022/10/26 11:58:01;;;;;;;8.20;3.22;;;25.00;99.90;;;;;;6212275;23;20173;-69
2022/10/26 12:00:28;;;;;;;3.67;3.35;;;25.10;99.90;;;;;;6223371;23;20185;-69
2022/10/26 12:03:01;;;;;;;3.20;3.00;;;25.20;99.90;;;;;;6223789;23;20583;-69
2022/10/26 12:05:39;;;;;;;3.35;3.10;;;25.20;99.90;;;;;;6211887;23;20237;-69
2022/10/26 12:08:19;;;;;;;3.53;3.33;;;25.40;99.90;;;;;;6223797;23;20201;-69
2022/10/26 12:10:50;;;;;;;3.60;3.40;;;25.50;99.90;;;;;;6211965;23;20158;-69
2022/10/26 12:13:40;;;;;;;3.60;3.40;;;25.40;99.90;;;;;;6223955;23;20146;-70
2022/10/26 12:16:23;;;;;;;3.20;2.92;;;25.30;99.90;;;;;;6223614;23;20234;-69
2022/10/26 12:18:55;;;;;;;5.18;4.05;;;25.20;99.90;;;;;;6224047;23;20536;-69
2022/10/26 12:21:25;;;;;;;3.13;2.92;;;25.40;99.90;;;;;;6210348;23;20147;-69
2022/10/26 12:24:21;;;;;;;3.72;3.53;;;25.20;99.90;;;;;;6224020;23;20186;-67
2022/10/26 12:26:55;;;;;;;2.85;2.75;;;25.00;99.90;;;;;;6223301;23;20251;-68
2022/10/26 12:29:46;;;;;;;3.00;2.80;;;24.90;99.90;;;;;;6211830;23;20161;-68
2022/10/26 12:32:27;;;;;;;2.75;2.60;;;24.70;99.90;;;;;;6223653;23;20563;-68
2022/10/26 12:34:53;;;;;;;3.20;2.90;;;24.60;99.90;;;;;;6212043;23;20151;-68
2022/10/26 12:37:28;;;;;;;3.22;2.88;;;24.70;99.90;;;;;;6223462;23;20190;-68
2022/10/26 12:39:53;;;;;;;3.15;2.95;;;24.70;99.90;;;;;;6222874;23;20516;-68
2022/10/26 12:42:22;;;;;;;4.32;3.38;;;24.80;99.90;;;;;;6212354;23;20150;-68
2022/10/26 12:44:47;;;;;;;3.40;3.20;;;24.70;99.90;;;;;;6223661;23;20147;-67
2022/10/26 12:47:31;;;;;;;4.05;3.75;;;24.80;99.90;;;;;;6212096;23;20171;-68
2022/10/26 12:50:06;;;;;;;2.85;2.70;;;24.80;99.90;;;;;;6223382;23;20177;-67
2022/10/26 12:52:53;;;;;;;2.92;2.72;;;24.90;99.90;;;;;;6223602;23;20147;-68
2022/10/26 12:55:47;;;;;;;2.92;2.72;;;25.00;99.90;;;;;;6223936;23;20201;-68
2022/10/26 12:58:31;;;;;;;3.30;3.08;;;25.00;99.90;;;;;;6223903;23;20537;-67
2022/10/26 13:00:57;;;;;;;4.03;3.72;;;24.70;99.90;;;;;;6211704;23;20479;-68
2022/10/26 13:03:28;;;;;;;4.00;3.58;;;24.60;99.90;;;;;;6223674;23;20143;-68
2022/10/26 13:06:16;;;;;;;3.78;3.00;;;24.70;99.90;;;;;;6223570;23;20139;-68
2022/10/26 13:08:49;;;;;;;3.20;3.00;;;24.90;99.90;;;;;;6211837;23;20226;-68
2022/10/26 13:11:19;;;;;;;6.80;4.25;;;25.00;99.90;;;;;;6223357;23;20212;-68